sensor_id;sensor_type;location;lat;lon;timestamp;temperature;humidity
29571;DHT22;16814;52.118;11.436;2023-10-08T00:01:52;12.40;99.90
29571;DHT22;16814;52.118;11.436;2023-10-08T00:04:21;12.50;99.90
29571;DHT22;16814;52.118;11.436;2023-10-08T00:06:47;12.40;99.90
29571;DHT22;16814;52.118;11.436;2023-10-08T00:09:12;12.70;99.90
29571;DHT22;16814;52.118;11.436;2023-10-08T00:11:39;12.50;99.90
29571;DHT22;16814;52.118;11.436;2023-10-08T00:14:06;12.50;99.90
29571;DHT22;16814;52.118;11.436;2023-10-08T00:16:34;12.50;99.90
29571;DHT22;16814;52.118;11.436;2023-10-08T00:19:00;12.50;99.90
29571;DHT22;16814;52.118;11.436;2023-10-08T00:21:33;12.40;99.90
29571;DHT22;16814;52.118;11.436;2023-10-08T00:24:00;12.40;99.90
29571;DHT22;16814;52.118;11.436;2023-10-08T00:26:31;12.40;99.90
29571;DHT22;16814;52.118;11.436;2023-10-08T00:28:57;12.50;99.90
29571;DHT22;16814;52.118;11.436;2023-10-08T00:31:25;12.50;99.90
29571;DHT22;16814;52.118;11.436;2023-10-08T00:33:56;12.40;99.90
29571;DHT22;16814;52.118;11.436;2023-10-08T00:36:22;12.40;99.90
29571;DHT22;16814;52.118;11.436;2023-10-08T00:38:49;12.40;99.90
29571;DHT22;16814;52.118;11.436;2023-10-08T00:41:18;12.40;99.90
29571;DHT22;16814;52.118;11.436;2023-10-08T00:43:47;12.40;99.90
29571;DHT22;16814;52.118;11.436;2023-10-08T00:46:13;12.40;99.90
29571;DHT22;16814;52.118;11.436;2023-10-08T00:48:49;12.40;99.90
29571;DHT22;16814;52.118;11.436;2023-10-08T00:51:19;12.40;99.90
29571;DHT22;16814;52.118;11.436;2023-10-08T00:54:00;12.30;99.90
29571;DHT22;16814;52.118;11.436;2023-10-08T00:56:33;12.30;99.90
29571;DHT22;16814;52.118;11.436;2023-10-08T00:59:18;12.20;99.90
29571;DHT22;16814;52.118;11.436;2023-10-08T01:01:47;12.10;99.90
29571;DHT22;16814;52.118;11.436;2023-10-08T01:04:25;12.00;99.90
29571;DHT22;16814;52.118;11.436;2023-10-08T01:06:55;12.10;99.90
29571;DHT22;16814;52.118;11.436;2023-10-08T01:09:25;12.20;99.90
29571;DHT22;16814;52.118;11.436;2023-10-08T01:12:22;12.20;99.90
29571;DHT22;16814;52.118;11.436;2023-10-08T01:14:53;12.20;99.90
29571;DHT22;16814;52.118;11.436;2023-10-08T01:17:30;12.20;99.90
29571;DHT22;16814;52.118;11.436;2023-10-08T01:19:58;12.10;99.90
29571;DHT22;16814;52.118;11.436;2023-10-08T01:22:34;12.00;99.90
29571;DHT22;16814;52.118;11.436;2023-10-08T01:25:00;11.80;99.90
29571;DHT22;16814;52.118;11.436;2023-10-08T01:27:30;11.80;99.90
29571;DHT22;16814;52.118;11.436;2023-10-08T01:30:00;11.80;99.90
29571;DHT22;16814;52.118;11.436;2023-10-08T01:32:46;11.70;99.90
29571;DHT22;16814;52.118;11.436;2023-10-08T01:35:12;11.70;99.90
29571;DHT22;16814;52.118;11.436;2023-10-08T01:37:49;11.60;99.90
29571;DHT22;16814;52.118;11.436;2023-10-08T01:40:16;11.50;99.90
29571;DHT22;16814;52.118;11.436;2023-10-08T01:42:42;11.50;99.90
29571;DHT22;16814;52.118;11.436;2023-10-08T01:45:09;11.50;99.90
29571;DHT22;16814;52.118;11.436;2023-10-08T01:47:38;11.40;99.90
29571;DHT22;16814;52.118;11.436;2023-10-08T01:50:04;11.20;99.90
29571;DHT22;16814;52.118;11.436;2023-10-08T01:52:46;11.10;99.90
29571;DHT22;16814;52.118;11.436;2023-10-08T01:55:12;11.00;99.90
29571;DHT22;16814;52.118;11.436;2023-10-08T01:57:42;10.60;99.90
29571;DHT22;16814;52.118;11.436;2023-10-08T02:00:09;10.60;99.90
29571;DHT22;16814;52.118;11.436;2023-10-08T02:02:35;10.50;99.90
29571;DHT22;16814;52.118;11.436;2023-10-08T02:05:01;10.40;99.90
29571;DHT22;16814;52.118;11.436;2023-10-08T02:07:26;10.60;99.90
29571;DHT22;16814;52.118;11.436;2023-10-08T02:09:52;10.30;99.90
29571;DHT22;16814;52.118;11.436;2023-10-08T02:12:18;10.40;99.90
29571;DHT22;16814;52.118;11.436;2023-10-08T02:14:43;10.40;99.90
29571;DHT22;16814;52.118;11.436;2023-10-08T02:17:09;10.50;99.90
29571;DHT22;16814;52.118;11.436;2023-10-08T02:19:35;10.50;99.90
29571;DHT22;16814;52.118;11.436;2023-10-08T02:22:02;10.40;99.90
29571;DHT22;16814;52.118;11.436;2023-10-08T02:24:31;10.60;99.90
29571;DHT22;16814;52.118;11.436;2023-10-08T02:26:57;10.60;99.90
29571;DHT22;16814;52.118;11.436;2023-10-08T02:29:28;10.70;99.90
29571;DHT22;16814;52.118;11.436;2023-10-08T02:31:53;10.80;99.90
29571;DHT22;16814;52.118;11.436;2023-10-08T02:34:19;10.80;99.90
29571;DHT22;16814;52.118;11.436;2023-10-08T02:36:45;11.00;99.90
29571;DHT22;16814;52.118;11.436;2023-10-08T02:39:13;11.00;99.90
29571;DHT22;16814;52.118;11.436;2023-10-08T02:41:43;11.00;99.90
29571;DHT22;16814;52.118;11.436;2023-10-08T02:44:12;11.00;99.90
29571;DHT22;16814;52.118;11.436;2023-10-08T02:46:45;11.00;99.90
29571;DHT22;16814;52.118;11.436;2023-10-08T02:49:13;11.00;99.90
29571;DHT22;16814;52.118;11.436;2023-10-08T02:51:42;11.10;99.90
29571;DHT22;16814;52.118;11.436;2023-10-08T02:54:10;11.10;99.90
29571;DHT22;16814;52.118;11.436;2023-10-08T02:56:50;11.20;99.90
29571;DHT22;16814;52.118;11.436;2023-10-08T02:59:28;11.20;99.90
29571;DHT22;16814;52.118;11.436;2023-10-08T03:01:54;11.20;99.90
29571;DHT22;16814;52.118;11.436;2023-10-08T03:04:22;11.20;99.90
29571;DHT22;16814;52.118;11.436;2023-10-08T03:06:49;11.10;99.90
29571;DHT22;16814;52.118;11.436;2023-10-08T03:09:18;11.10;99.90
29571;DHT22;16814;52.118;11.436;2023-10-08T03:11:49;11.20;99.90
29571;DHT22;16814;52.118;11.436;2023-10-08T03:14:16;11.20;99.90
29571;DHT22;16814;52.118;11.436;2023-10-08T03:16:54;11.30;99.90
29571;DHT22;16814;52.118;11.436;2023-10-08T03:19:21;11.40;99.90
29571;DHT22;16814;52.118;11.436;2023-10-08T03:21:50;11.40;99.90
29571;DHT22;16814;52.118;11.436;2023-10-08T03:24:22;11.40;99.90
29571;DHT22;16814;52.118;11.436;2023-10-08T03:27:01;11.40;99.90
29571;DHT22;16814;52.118;11.436;2023-10-08T03:29:37;11.40;99.90
29571;DHT22;16814;52.118;11.436;2023-10-08T03:32:10;11.30;99.90
29571;DHT22;16814;52.118;11.436;2023-10-08T03:34:47;11.40;99.90
29571;DHT22;16814;52.118;11.436;2023-10-08T03:37:14;11.50;99.90
29571;DHT22;16814;52.118;11.436;2023-10-08T03:39:49;11.60;99.90
29571;DHT22;16814;52.118;11.436;2023-10-08T03:42:26;11.60;99.90
29571;DHT22;16814;52.118;11.436;2023-10-08T03:44:55;11.70;99.90
29571;DHT22;16814;52.118;11.436;2023-10-08T03:47:22;11.70;99.90
29571;DHT22;16814;52.118;11.436;2023-10-08T03:49:51;11.80;99.90
29571;DHT22;16814;52.118;11.436;2023-10-08T03:52:17;11.80;99.90
29571;DHT22;16814;52.118;11.436;2023-10-08T03:54:49;11.70;99.90
29571;DHT22;16814;52.118;11.436;2023-10-08T03:57:29;11.80;99.90
29571;DHT22;16814;52.118;11.436;2023-10-08T04:00:08;11.80;99.90
29571;DHT22;16814;52.118;11.436;2023-10-08T04:02:38;11.80;99.90
29571;DHT22;16814;52.118;11.436;2023-10-08T04:05:11;11.70;99.90
29571;DHT22;16814;52.118;11.436;2023-10-08T04:07:53;11.60;99.90
29571;DHT22;16814;52.118;11.436;2023-10-08T04:10:29;11.60;99.90
29571;DHT22;16814;52.118;11.436;2023-10-08T04:13:07;11.60;99.90
29571;DHT22;16814;52.118;11.436;2023-10-08T04:15:36;11.60;99.90
29571;DHT22;16814;52.118;11.436;2023-10-08T04:18:07;11.60;99.90
29571;DHT22;16814;52.118;11.436;2023-10-08T04:20:32;11.50;99.90
29571;DHT22;16814;52.118;11.436;2023-10-08T04:23:00;11.60;99.90
29571;DHT22;16814;52.118;11.436;2023-10-08T04:25:29;11.60;99.90
29571;DHT22;16814;52.118;11.436;2023-10-08T04:27:59;11.60;99.90
29571;DHT22;16814;52.118;11.436;2023-10-08T04:30:35;11.60;99.90
29571;DHT22;16814;52.118;11.436;2023-10-08T04:33:04;11.50;99.90
29571;DHT22;16814;52.118;11.436;2023-10-08T04:35:38;11.60;99.90
29571;DHT22;16814;52.118;11.436;2023-10-08T04:38:19;11.50;99.90
29571;DHT22;16814;52.118;11.436;2023-10-08T04:40:50;11.50;99.90
29571;DHT22;16814;52.118;11.436;2023-10-08T04:43:24;11.50;99.90
29571;DHT22;16814;52.118;11.436;2023-10-08T04:45:59;11.40;99.90
29571;DHT22;16814;52.118;11.436;2023-10-08T04:48:30;11.40;99.90
29571;DHT22;16814;52.118;11.436;2023-10-08T04:50:58;11.30;99.90
29571;DHT22;16814;52.118;11.436;2023-10-08T04:53:29;11.40;99.90
29571;DHT22;16814;52.118;11.436;2023-10-08T04:56:01;11.30;99.90
29571;DHT22;16814;52.118;11.436;2023-10-08T04:58:43;11.20;99.90
29571;DHT22;16814;52.118;11.436;2023-10-08T05:01:15;11.30;99.90
29571;DHT22;16814;52.118;11.436;2023-10-08T05:03:55;11.30;99.90
29571;DHT22;16814;52.118;11.436;2023-10-08T05:06:28;11.30;99.90
29571;DHT22;16814;52.118;11.436;2023-10-08T05:11:44;11.30;99.90
29571;DHT22;16814;52.118;11.436;2023-10-08T05:14:17;11.10;99.90
29571;DHT22;16814;52.118;11.436;2023-10-08T05:17:08;11.20;99.90
29571;DHT22;16814;52.118;11.436;2023-10-08T05:19:40;11.20;99.90
29571;DHT22;16814;52.118;11.436;2023-10-08T05:22:09;11.30;99.90
29571;DHT22;16814;52.118;11.436;2023-10-08T05:24:53;11.30;99.90
29571;DHT22;16814;52.118;11.436;2023-10-08T05:27:40;11.30;99.90
29571;DHT22;16814;52.118;11.436;2023-10-08T05:30:15;11.30;99.90
29571;DHT22;16814;52.118;11.436;2023-10-08T05:32:43;11.30;99.90
29571;DHT22;16814;52.118;11.436;2023-10-08T05:35:38;11.30;99.90
29571;DHT22;16814;52.118;11.436;2023-10-08T05:38:20;11.20;99.90
29571;DHT22;16814;52.118;11.436;2023-10-08T05:40:55;11.20;99.90
29571;DHT22;16814;52.118;11.436;2023-10-08T05:43:42;11.20;99.90
29571;DHT22;16814;52.118;11.436;2023-10-08T05:46:14;11.20;99.90
29571;DHT22;16814;52.118;11.436;2023-10-08T05:48:54;11.20;99.90
29571;DHT22;16814;52.118;11.436;2023-10-08T05:51:35;11.20;99.90
29571;DHT22;16814;52.118;11.436;2023-10-08T05:54:17;11.10;99.90
29571;DHT22;16814;52.118;11.436;2023-10-08T05:56:57;11.20;99.90
29571;DHT22;16814;52.118;11.436;2023-10-08T05:59:32;11.20;99.90
29571;DHT22;16814;52.118;11.436;2023-10-08T06:02:07;11.20;99.90
29571;DHT22;16814;52.118;11.436;2023-10-08T06:04:51;11.20;99.90
29571;DHT22;16814;52.118;11.436;2023-10-08T06:07:53;11.20;99.90
29571;DHT22;16814;52.118;11.436;2023-10-08T06:13:11;11.00;99.90
29571;DHT22;16814;52.118;11.436;2023-10-08T06:16:08;11.00;99.90
29571;DHT22;16814;52.118;11.436;2023-10-08T06:18:34;11.20;99.90
29571;DHT22;16814;52.118;11.436;2023-10-08T06:21:04;11.30;99.90
29571;DHT22;16814;52.118;11.436;2023-10-08T06:23:33;11.20;99.90
29571;DHT22;16814;52.118;11.436;2023-10-08T06:26:03;11.20;99.90
29571;DHT22;16814;52.118;11.436;2023-10-08T06:28:36;11.30;99.90
29571;DHT22;16814;52.118;11.436;2023-10-08T06:31:03;11.20;99.90
29571;DHT22;16814;52.118;11.436;2023-10-08T06:33:32;11.20;99.90
29571;DHT22;16814;52.118;11.436;2023-10-08T06:36:03;11.20;99.90
29571;DHT22;16814;52.118;11.436;2023-10-08T06:38:40;11.10;99.90
29571;DHT22;16814;52.118;11.436;2023-10-08T06:41:07;11.30;99.90
29571;DHT22;16814;52.118;11.436;2023-10-08T06:43:41;11.30;99.90
29571;DHT22;16814;52.118;11.436;2023-10-08T06:46:13;11.30;99.90
29571;DHT22;16814;52.118;11.436;2023-10-08T06:48:40;11.60;99.90
29571;DHT22;16814;52.118;11.436;2023-10-08T06:51:09;11.50;99.90
29571;DHT22;16814;52.118;11.436;2023-10-08T06:53:41;11.60;99.90
29571;DHT22;16814;52.118;11.436;2023-10-08T06:56:07;11.60;99.90
29571;DHT22;16814;52.118;11.436;2023-10-08T06:58:35;11.70;99.90
29571;DHT22;16814;52.118;11.436;2023-10-08T07:01:01;11.70;99.90
29571;DHT22;16814;52.118;11.436;2023-10-08T07:03:30;11.70;99.90
29571;DHT22;16814;52.118;11.436;2023-10-08T07:05:57;11.80;99.90
29571;DHT22;16814;52.118;11.436;2023-10-08T07:08:24;11.80;99.90
29571;DHT22;16814;52.118;11.436;2023-10-08T07:10:51;11.70;99.90
29571;DHT22;16814;52.118;11.436;2023-10-08T07:13:18;11.60;99.90
29571;DHT22;16814;52.118;11.436;2023-10-08T07:15:45;11.60;99.90
29571;DHT22;16814;52.118;11.436;2023-10-08T07:18:11;11.60;99.90
29571;DHT22;16814;52.118;11.436;2023-10-08T07:20:45;11.60;99.90
29571;DHT22;16814;52.118;11.436;2023-10-08T07:23:11;11.60;99.90
29571;DHT22;16814;52.118;11.436;2023-10-08T07:25:58;11.70;99.90
29571;DHT22;16814;52.118;11.436;2023-10-08T07:28:45;11.70;99.90
29571;DHT22;16814;52.118;11.436;2023-10-08T07:31:22;11.70;99.90
29571;DHT22;16814;52.118;11.436;2023-10-08T07:33:53;11.80;99.90
29571;DHT22;16814;52.118;11.436;2023-10-08T07:36:26;12.00;99.90
29571;DHT22;16814;52.118;11.436;2023-10-08T07:38:53;12.30;99.90
29571;DHT22;16814;52.118;11.436;2023-10-08T07:41:19;12.50;99.90
29571;DHT22;16814;52.118;11.436;2023-10-08T07:43:46;12.70;99.90
29571;DHT22;16814;52.118;11.436;2023-10-08T07:46:24;12.80;99.90
29571;DHT22;16814;52.118;11.436;2023-10-08T07:48:56;12.70;99.90
29571;DHT22;16814;52.118;11.436;2023-10-08T07:51:23;12.60;99.90
29571;DHT22;16814;52.118;11.436;2023-10-08T07:53:51;12.60;99.90
29571;DHT22;16814;52.118;11.436;2023-10-08T07:56:24;12.50;99.90
29571;DHT22;16814;52.118;11.436;2023-10-08T07:58:50;12.50;99.90
29571;DHT22;16814;52.118;11.436;2023-10-08T08:01:16;12.40;99.90
29571;DHT22;16814;52.118;11.436;2023-10-08T08:03:42;12.60;99.90
29571;DHT22;16814;52.118;11.436;2023-10-08T08:06:09;12.60;99.90
29571;DHT22;16814;52.118;11.436;2023-10-08T08:08:39;12.50;99.90
29571;DHT22;16814;52.118;11.436;2023-10-08T08:11:08;12.60;99.90
29571;DHT22;16814;52.118;11.436;2023-10-08T08:13:43;12.60;99.90
29571;DHT22;16814;52.118;11.436;2023-10-08T08:16:13;12.70;99.90
29571;DHT22;16814;52.118;11.436;2023-10-08T08:18:50;12.70;99.90
29571;DHT22;16814;52.118;11.436;2023-10-08T08:21:18;12.70;99.90
29571;DHT22;16814;52.118;11.436;2023-10-08T08:23:47;12.70;99.90
29571;DHT22;16814;52.118;11.436;2023-10-08T08:26:24;12.80;99.90
29571;DHT22;16814;52.118;11.436;2023-10-08T08:28:54;12.80;99.90
29571;DHT22;16814;52.118;11.436;2023-10-08T08:31:20;12.80;99.90
29571;DHT22;16814;52.118;11.436;2023-10-08T08:33:46;12.80;99.90
29571;DHT22;16814;52.118;11.436;2023-10-08T08:36:18;12.90;99.90
29571;DHT22;16814;52.118;11.436;2023-10-08T08:38:44;13.10;99.90
29571;DHT22;16814;52.118;11.436;2023-10-08T08:41:10;13.10;99.90
29571;DHT22;16814;52.118;11.436;2023-10-08T08:43:38;13.10;99.90
29571;DHT22;16814;52.118;11.436;2023-10-08T08:46:10;13.00;99.90
29571;DHT22;16814;52.118;11.436;2023-10-08T08:48:43;13.10;99.90
29571;DHT22;16814;52.118;11.436;2023-10-08T08:51:10;13.20;99.90
29571;DHT22;16814;52.118;11.436;2023-10-08T08:53:36;13.30;99.90
29571;DHT22;16814;52.118;11.436;2023-10-08T08:56:02;13.30;99.90
29571;DHT22;16814;52.118;11.436;2023-10-08T08:58:32;13.30;99.90
29571;DHT22;16814;52.118;11.436;2023-10-08T09:00:59;13.20;99.90
29571;DHT22;16814;52.118;11.436;2023-10-08T09:03:25;13.40;99.90
29571;DHT22;16814;52.118;11.436;2023-10-08T09:05:59;13.20;99.90
29571;DHT22;16814;52.118;11.436;2023-10-08T09:08:37;13.20;99.90
29571;DHT22;16814;52.118;11.436;2023-10-08T09:11:07;13.10;99.90
29571;DHT22;16814;52.118;11.436;2023-10-08T09:13:34;13.10;99.90
29571;DHT22;16814;52.118;11.436;2023-10-08T09:16:14;13.00;99.90
29571;DHT22;16814;52.118;11.436;2023-10-08T09:18:44;12.90;99.90
29571;DHT22;16814;52.118;11.436;2023-10-08T09:21:19;12.90;99.90
29571;DHT22;16814;52.118;11.436;2023-10-08T09:23:49;12.90;99.90
29571;DHT22;16814;52.118;11.436;2023-10-08T09:26:17;12.80;99.90
29571;DHT22;16814;52.118;11.436;2023-10-08T09:28:47;12.90;99.90
29571;DHT22;16814;52.118;11.436;2023-10-08T09:31:14;13.20;99.90
29571;DHT22;16814;52.118;11.436;2023-10-08T09:33:40;13.60;99.90
29571;DHT22;16814;52.118;11.436;2023-10-08T09:36:08;13.80;99.90
29571;DHT22;16814;52.118;11.436;2023-10-08T09:38:36;14.00;99.90
29571;DHT22;16814;52.118;11.436;2023-10-08T09:41:02;14.20;99.90
29571;DHT22;16814;52.118;11.436;2023-10-08T09:43:28;14.40;99.90
29571;DHT22;16814;52.118;11.436;2023-10-08T09:46:21;14.70;99.90
29571;DHT22;16814;52.118;11.436;2023-10-08T09:48:57;15.30;99.90
29571;DHT22;16814;52.118;11.436;2023-10-08T09:51:25;15.60;99.90
29571;DHT22;16814;52.118;11.436;2023-10-08T09:54:18;15.20;99.90
29571;DHT22;16814;52.118;11.436;2023-10-08T09:56:45;15.00;99.90
29571;DHT22;16814;52.118;11.436;2023-10-08T09:59:12;14.80;99.90
29571;DHT22;16814;52.118;11.436;2023-10-08T10:01:40;14.70;99.90
29571;DHT22;16814;52.118;11.436;2023-10-08T10:04:11;14.40;99.90
29571;DHT22;16814;52.118;11.436;2023-10-08T10:06:37;14.20;99.90
29571;DHT22;16814;52.118;11.436;2023-10-08T10:09:05;14.20;99.90
29571;DHT22;16814;52.118;11.436;2023-10-08T10:11:45;14.20;99.90
29571;DHT22;16814;52.118;11.436;2023-10-08T10:14:11;14.20;99.90
29571;DHT22;16814;52.118;11.436;2023-10-08T10:16:39;14.40;99.90
29571;DHT22;16814;52.118;11.436;2023-10-08T10:19:16;14.70;99.90
29571;DHT22;16814;52.118;11.436;2023-10-08T10:21:42;15.40;99.90
29571;DHT22;16814;52.118;11.436;2023-10-08T10:24:22;16.20;99.90
29571;DHT22;16814;52.118;11.436;2023-10-08T10:27:11;16.80;99.90
29571;DHT22;16814;52.118;11.436;2023-10-08T10:29:37;17.20;99.90
29571;DHT22;16814;52.118;11.436;2023-10-08T10:32:03;17.50;99.90
29571;DHT22;16814;52.118;11.436;2023-10-08T10:34:30;17.00;99.90
29571;DHT22;16814;52.118;11.436;2023-10-08T10:37:00;16.60;99.90
29571;DHT22;16814;52.118;11.436;2023-10-08T10:39:51;16.20;99.90
29571;DHT22;16814;52.118;11.436;2023-10-08T10:42:18;15.90;99.90
29571;DHT22;16814;52.118;11.436;2023-10-08T10:44:47;15.40;99.90
29571;DHT22;16814;52.118;11.436;2023-10-08T10:47:17;15.00;99.90
29571;DHT22;16814;52.118;11.436;2023-10-08T10:49:47;14.60;99.90
29571;DHT22;16814;52.118;11.436;2023-10-08T10:52:20;14.60;99.90
29571;DHT22;16814;52.118;11.436;2023-10-08T10:55:10;14.40;99.90
29571;DHT22;16814;52.118;11.436;2023-10-08T10:57:56;14.20;99.90
29571;DHT22;16814;52.118;11.436;2023-10-08T11:00:25;14.10;99.90
29571;DHT22;16814;52.118;11.436;2023-10-08T11:02:58;14.00;99.90
29571;DHT22;16814;52.118;11.436;2023-10-08T11:05:32;13.80;99.90
29571;DHT22;16814;52.118;11.436;2023-10-08T11:08:03;14.00;99.90
29571;DHT22;16814;52.118;11.436;2023-10-08T11:10:37;14.00;99.90
29571;DHT22;16814;52.118;11.436;2023-10-08T11:13:18;14.10;99.90
29571;DHT22;16814;52.118;11.436;2023-10-08T11:15:46;14.40;99.90
29571;DHT22;16814;52.118;11.436;2023-10-08T11:18:16;14.70;99.90
29571;DHT22;16814;52.118;11.436;2023-10-08T11:20:43;14.80;99.90
29571;DHT22;16814;52.118;11.436;2023-10-08T11:23:34;14.80;99.90
29571;DHT22;16814;52.118;11.436;2023-10-08T11:26:03;15.10;99.90
29571;DHT22;16814;52.118;11.436;2023-10-08T11:28:36;15.40;99.90
29571;DHT22;16814;52.118;11.436;2023-10-08T11:31:08;15.80;99.90
29571;DHT22;16814;52.118;11.436;2023-10-08T11:33:44;15.80;99.90
29571;DHT22;16814;52.118;11.436;2023-10-08T11:36:30;15.80;99.90
29571;DHT22;16814;52.118;11.436;2023-10-08T11:39:09;15.80;99.90
29571;DHT22;16814;52.118;11.436;2023-10-08T11:41:36;15.70;99.90
29571;DHT22;16814;52.118;11.436;2023-10-08T11:44:16;15.40;99.90
29571;DHT22;16814;52.118;11.436;2023-10-08T11:46:45;15.20;99.90
29571;DHT22;16814;52.118;11.436;2023-10-08T11:49:12;15.00;99.90
29571;DHT22;16814;52.118;11.436;2023-10-08T11:51:44;14.80;99.90
29571;DHT22;16814;52.118;11.436;2023-10-08T11:54:11;14.70;99.90
29571;DHT22;16814;52.118;11.436;2023-10-08T11:56:38;14.70;99.90
29571;DHT22;16814;52.118;11.436;2023-10-08T11:59:04;14.90;99.90
29571;DHT22;16814;52.118;11.436;2023-10-08T12:01:37;14.80;99.90
29571;DHT22;16814;52.118;11.436;2023-10-08T12:04:08;14.50;99.90
29571;DHT22;16814;52.118;11.436;2023-10-08T12:06:39;14.50;99.90
29571;DHT22;16814;52.118;11.436;2023-10-08T12:09:15;14.60;99.90
29571;DHT22;16814;52.118;11.436;2023-10-08T12:11:41;14.60;99.90
29571;DHT22;16814;52.118;11.436;2023-10-08T12:14:08;15.00;99.90
29571;DHT22;16814;52.118;11.436;2023-10-08T12:16:34;15.10;99.90
29571;DHT22;16814;52.118;11.436;2023-10-08T12:19:04;15.20;99.90
29571;DHT22;16814;52.118;11.436;2023-10-08T12:21:41;15.00;99.90
29571;DHT22;16814;52.118;11.436;2023-10-08T12:24:06;15.00;99.90
29571;DHT22;16814;52.118;11.436;2023-10-08T12:26:36;15.20;99.90
29571;DHT22;16814;52.118;11.436;2023-10-08T12:29:01;15.30;99.90
29571;DHT22;16814;52.118;11.436;2023-10-08T12:31:27;15.30;99.90
29571;DHT22;16814;52.118;11.436;2023-10-08T12:33:55;15.40;99.90
29571;DHT22;16814;52.118;11.436;2023-10-08T12:36:26;15.40;99.90
29571;DHT22;16814;52.118;11.436;2023-10-08T12:38:58;15.40;99.90
29571;DHT22;16814;52.118;11.436;2023-10-08T12:41:24;15.50;99.90
29571;DHT22;16814;52.118;11.436;2023-10-08T12:43:52;15.70;99.90
29571;DHT22;16814;52.118;11.436;2023-10-08T12:46:18;15.80;99.90
29571;DHT22;16814;52.118;11.436;2023-10-08T12:48:49;15.80;99.90
29571;DHT22;16814;52.118;11.436;2023-10-08T12:51:20;15.60;99.90
29571;DHT22;16814;52.118;11.436;2023-10-08T12:53:49;15.50;99.90
29571;DHT22;16814;52.118;11.436;2023-10-08T12:56:28;15.60;99.90
29571;DHT22;16814;52.118;11.436;2023-10-08T12:59:14;15.80;99.90
29571;DHT22;16814;52.118;11.436;2023-10-08T13:01:46;15.90;99.90
29571;DHT22;16814;52.118;11.436;2023-10-08T13:04:19;15.90;99.90
29571;DHT22;16814;52.118;11.436;2023-10-08T13:06:53;15.90;99.90
29571;DHT22;16814;52.118;11.436;2023-10-08T13:09:23;15.80;99.90
29571;DHT22;16814;52.118;11.436;2023-10-08T13:11:48;15.60;99.90
29571;DHT22;16814;52.118;11.436;2023-10-08T13:14:14;15.70;99.90
29571;DHT22;16814;52.118;11.436;2023-10-08T13:16:39;15.70;99.90
29571;DHT22;16814;52.118;11.436;2023-10-08T13:19:05;15.90;99.90
29571;DHT22;16814;52.118;11.436;2023-10-08T13:21:33;15.90;99.90
29571;DHT22;16814;52.118;11.436;2023-10-08T13:23:59;15.90;99.90
29571;DHT22;16814;52.118;11.436;2023-10-08T13:26:29;16.10;99.90
29571;DHT22;16814;52.118;11.436;2023-10-08T13:28:57;16.10;99.90
29571;DHT22;16814;52.118;11.436;2023-10-08T13:31:27;16.10;99.90
29571;DHT22;16814;52.118;11.436;2023-10-08T13:33:52;16.20;99.90
29571;DHT22;16814;52.118;11.436;2023-10-08T13:36:22;16.30;99.90
29571;DHT22;16814;52.118;11.436;2023-10-08T13:38:47;16.20;99.90
29571;DHT22;16814;52.118;11.436;2023-10-08T13:41:13;16.30;99.90
29571;DHT22;16814;52.118;11.436;2023-10-08T13:43:44;16.40;99.90
29571;DHT22;16814;52.118;11.436;2023-10-08T13:46:17;16.30;99.90
29571;DHT22;16814;52.118;11.436;2023-10-08T13:48:45;16.10;99.90
29571;DHT22;16814;52.118;11.436;2023-10-08T13:51:15;16.10;99.90
29571;DHT22;16814;52.118;11.436;2023-10-08T13:53:52;15.90;99.90
29571;DHT22;16814;52.118;11.436;2023-10-08T13:56:19;15.70;99.90
29571;DHT22;16814;52.118;11.436;2023-10-08T13:58:56;15.50;99.90
29571;DHT22;16814;52.118;11.436;2023-10-08T14:01:33;15.50;99.90
29571;DHT22;16814;52.118;11.436;2023-10-08T14:04:00;15.50;99.90
29571;DHT22;16814;52.118;11.436;2023-10-08T14:06:34;15.80;99.90
29571;DHT22;16814;52.118;11.436;2023-10-08T14:09:01;15.40;99.90
29571;DHT22;16814;52.118;11.436;2023-10-08T14:11:27;15.50;99.90
29571;DHT22;16814;52.118;11.436;2023-10-08T14:13:56;15.60;99.90
29571;DHT22;16814;52.118;11.436;2023-10-08T14:16:23;15.50;99.90
29571;DHT22;16814;52.118;11.436;2023-10-08T14:18:50;15.50;99.90
29571;DHT22;16814;52.118;11.436;2023-10-08T14:21:19;15.70;99.90
29571;DHT22;16814;52.118;11.436;2023-10-08T14:23:52;15.80;99.90
29571;DHT22;16814;52.118;11.436;2023-10-08T14:26:18;15.60;99.90
29571;DHT22;16814;52.118;11.436;2023-10-08T14:28:48;15.70;99.90
29571;DHT22;16814;52.118;11.436;2023-10-08T14:31:18;15.90;99.90
29571;DHT22;16814;52.118;11.436;2023-10-08T14:33:48;16.10;99.90
29571;DHT22;16814;52.118;11.436;2023-10-08T14:36:47;16.00;99.90
29571;DHT22;16814;52.118;11.436;2023-10-08T14:39:33;15.80;99.90
29571;DHT22;16814;52.118;11.436;2023-10-08T14:42:17;15.70;99.90
29571;DHT22;16814;52.118;11.436;2023-10-08T14:45:03;15.50;99.90
29571;DHT22;16814;52.118;11.436;2023-10-08T14:47:31;15.30;99.90
29571;DHT22;16814;52.118;11.436;2023-10-08T14:49:57;15.30;99.90
29571;DHT22;16814;52.118;11.436;2023-10-08T14:52:22;15.50;99.90
29571;DHT22;16814;52.118;11.436;2023-10-08T14:54:50;15.60;99.90
29571;DHT22;16814;52.118;11.436;2023-10-08T14:57:17;15.70;99.90
29571;DHT22;16814;52.118;11.436;2023-10-08T14:59:44;15.70;99.90
29571;DHT22;16814;52.118;11.436;2023-10-08T15:02:09;15.50;99.90
29571;DHT22;16814;52.118;11.436;2023-10-08T15:04:36;15.40;99.90
29571;DHT22;16814;52.118;11.436;2023-10-08T15:07:07;15.30;99.90
29571;DHT22;16814;52.118;11.436;2023-10-08T15:09:37;15.10;99.90
29571;DHT22;16814;52.118;11.436;2023-10-08T15:12:05;15.00;99.90
29571;DHT22;16814;52.118;11.436;2023-10-08T15:14:31;14.90;99.90
29571;DHT22;16814;52.118;11.436;2023-10-08T15:16:58;14.90;99.90
29571;DHT22;16814;52.118;11.436;2023-10-08T15:19:24;14.90;99.90
29571;DHT22;16814;52.118;11.436;2023-10-08T15:21:50;14.80;99.90
29571;DHT22;16814;52.118;11.436;2023-10-08T15:24:20;14.70;99.90
29571;DHT22;16814;52.118;11.436;2023-10-08T15:26:53;14.70;99.90
29571;DHT22;16814;52.118;11.436;2023-10-08T15:29:22;14.70;99.90
29571;DHT22;16814;52.118;11.436;2023-10-08T15:31:54;14.70;99.90
29571;DHT22;16814;52.118;11.436;2023-10-08T15:34:23;14.60;99.90
29571;DHT22;16814;52.118;11.436;2023-10-08T15:36:54;14.50;99.90
29571;DHT22;16814;52.118;11.436;2023-10-08T15:39:20;14.40;99.90
29571;DHT22;16814;52.118;11.436;2023-10-08T15:41:48;14.40;99.90
29571;DHT22;16814;52.118;11.436;2023-10-08T15:44:14;14.40;99.90
29571;DHT22;16814;52.118;11.436;2023-10-08T15:46:40;14.30;99.90